Time;durP1;ratioP1;P1;durP2;ratioP2;P2;SDS_P1;SDS_P2;PMS_P1;PMS_P2;Temp;Humidity;BMP_temperature;BMP_pressure;BME280_temperature;BME280_humidity;BME280_pressure;Samples;Min_cycle;Max_cycle;Signal;HPM_P1;HPM_P2
2021/07/21 00:00:35;;;;;;;20.77;13.50;;;19.30;99.90;;;;;;5011214;28;20990;-61
2021/07/21 00:03:02;;;;;;;21.23;14.00;;;19.30;99.90;;;;;;5013530;28;20554;-60
2021/07/21 00:05:29;;;;;;;23.33;13.50;;;19.30;99.90;;;;;;5012532;28;20955;-59
2021/07/21 00:07:57;;;;;;;22.83;13.93;;;19.10;99.90;;;;;;5011344;28;20533;-60
2021/07/21 00:10:30;;;;;;;23.07;14.30;;;18.80;99.90;;;;;;5011080;28;20485;-60
2021/07/21 00:15:49;;;;;;;22.27;12.93;;;18.90;99.90;;;;;;5002349;28;20437;-60
2021/07/21 00:18:19;;;;;;;22.77;13.27;;;18.90;99.90;;;;;;5011460;28;20604;-60
2021/07/21 00:20:48;;;;;;;24.63;13.13;;;18.90;99.90;;;;;;5011396;28;20504;-60
2021/07/21 00:23:15;;;;;;;23.10;13.53;;;18.90;99.90;;;;;;5012327;28;20472;-60
2021/07/21 00:25:44;;;;;;;22.67;13.30;;;18.90;99.90;;;;;;5011654;28;20519;-60
2021/07/21 00:28:11;;;;;;;23.67;13.70;;;18.80;99.90;;;;;;5011351;28;20442;-60
2021/07/21 00:30:38;;;;;;;24.13;13.10;;;18.90;99.90;;;;;;5011192;28;20535;-59
2021/07/21 00:33:05;;;;;;;22.17;13.23;;;18.90;99.90;;;;;;5011050;28;20896;-60
2021/07/21 00:35:32;;;;;;;24.53;13.37;;;19.00;99.90;;;;;;5011598;28;20454;-60
2021/07/21 00:37:59;;;;;;;21.40;13.73;;;18.90;99.90;;;;;;5012783;28;20496;-60
2021/07/21 00:40:26;;;;;;;24.73;13.50;;;18.90;99.90;;;;;;5015198;28;20453;-59
2021/07/21 00:42:55;;;;;;;21.50;13.43;;;18.90;99.90;;;;;;5015034;28;21018;-59
2021/07/21 00:45:22;;;;;;;23.50;14.23;;;18.80;99.90;;;;;;5032845;28;20510;-59
2021/07/21 00:47:49;;;;;;;23.07;14.00;;;18.60;99.90;;;;;;5014983;28;20511;-60
2021/07/21 00:50:16;;;;;;;22.87;14.37;;;18.60;99.90;;;;;;5014796;28;20481;-59
2021/07/21 00:52:44;;;;;;;26.83;13.97;;;18.50;99.90;;;;;;5014643;28;20554;-61
2021/07/21 00:55:13;;;;;;;22.07;13.23;;;18.60;99.90;;;;;;5032863;28;20448;-59
2021/07/21 00:57:41;;;;;;;20.50;13.20;;;18.60;99.90;;;;;;4995371;28;20882;-60
2021/07/21 01:00:12;;;;;;;21.33;13.27;;;18.60;99.90;;;;;;5003252;28;20437;-60
2021/07/21 01:02:39;;;;;;;22.20;13.97;;;18.60;99.90;;;;;;5026930;28;20480;-59
2021/07/21 01:05:10;;;;;;;21.30;13.57;;;18.60;99.90;;;;;;5031879;28;20452;-59
2021/07/21 01:07:38;;;;;;;23.03;14.17;;;18.60;99.90;;;;;;5034692;28;20459;-58
2021/07/21 01:10:11;;;;;;;23.00;13.40;;;18.60;99.90;;;;;;5034480;28;20444;-59
2021/07/21 01:12:42;;;;;;;30.57;17.00;;;18.60;99.90;;;;;;5034500;28;20530;-59
2021/07/21 01:15:14;;;;;;;22.73;14.97;;;18.20;99.90;;;;;;5017989;28;20581;-60
2021/07/21 01:17:46;;;;;;;22.83;13.70;;;18.10;99.90;;;;;;5014723;28;21162;-58
2021/07/21 01:20:39;;;;;;;22.20;14.30;;;18.10;99.90;;;;;;5014447;28;20524;-59
2021/07/21 01:23:14;;;;;;;22.60;14.20;;;18.10;99.90;;;;;;5014098;28;21061;-59
2021/07/21 01:25:48;;;;;;;24.47;14.80;;;18.20;99.90;;;;;;5034495;28;20514;-59
2021/07/21 01:28:16;;;;;;;22.23;14.07;;;18.20;99.90;;;;;;5017660;28;20507;-59
2021/07/21 01:30:45;;;;;;;23.47;13.80;;;18.20;99.90;;;;;;5014168;28;20485;-59
2021/07/21 01:33:14;;;;;;;25.10;13.80;;;18.30;99.90;;;;;;5015536;28;20469;-59
2021/07/21 01:35:52;;;;;;;26.60;15.47;;;18.20;99.90;;;;;;4994716;28;20937;-59
2021/07/21 01:38:23;;;;;;;22.50;14.20;;;18.20;99.90;;;;;;5006985;28;20450;-59
2021/07/21 01:40:55;;;;;;;24.23;14.00;;;18.30;99.90;;;;;;5014020;28;20453;-59
2021/07/21 01:43:28;;;;;;;21.13;13.67;;;18.30;99.90;;;;;;5015717;28;20532;-60
2021/07/21 01:45:56;;;;;;;22.00;13.07;;;18.20;99.90;;;;;;5022858;28;20457;-59
2021/07/21 01:48:25;;;;;;;23.70;14.53;;;18.20;99.90;;;;;;5013409;28;20476;-59
2021/07/21 01:50:55;;;;;;;20.17;13.30;;;18.20;99.90;;;;;;5012013;28;21064;-59
2021/07/21 01:53:22;;;;;;;26.70;14.07;;;18.10;99.90;;;;;;5020120;28;20523;-59
2021/07/21 01:55:50;;;;;;;22.30;14.10;;;18.10;99.90;;;;;;5013844;28;20446;-59
2021/07/21 01:58:19;;;;;;;23.13;13.83;;;18.10;99.90;;;;;;5013300;28;20458;-59
2021/07/21 02:00:53;;;;;;;22.93;13.20;;;18.10;99.90;;;;;;5013741;28;20450;-59
2021/07/21 02:03:21;;;;;;;22.80;14.40;;;18.10;99.90;;;;;;5014154;28;20484;-59
2021/07/21 02:05:49;;;;;;;21.00;12.60;;;18.00;99.90;;;;;;5064226;22;20559;-51
2021/07/21 02:08:21;;;;;;;24.00;13.80;;;18.00;99.90;;;;;;5044168;28;20505;-51
2021/07/21 02:10:48;;;;;;;25.70;14.70;;;18.00;99.90;;;;;;5034625;28;20480;-52
2021/07/21 02:13:17;;;;;;;23.17;14.50;;;17.90;99.90;;;;;;5039247;28;20448;-52
2021/07/21 02:15:45;;;;;;;25.40;14.37;;;17.90;99.90;;;;;;5033366;28;20472;-52
2021/07/21 02:18:16;;;;;;;25.53;14.67;;;17.80;99.90;;;;;;5033318;28;20453;-51
2021/07/21 02:20:45;;;;;;;22.40;13.43;;;17.80;99.90;;;;;;5032967;28;21013;-52
2021/07/21 02:23:12;;;;;;;25.03;14.70;;;17.80;99.90;;;;;;5033100;28;20460;-52
2021/07/21 02:25:40;;;;;;;24.23;14.93;;;17.80;99.90;;;;;;5033194;28;20472;-52
2021/07/21 02:28:07;;;;;;;22.87;14.27;;;17.80;99.90;;;;;;5032784;28;20448;-52
2021/07/21 02:30:35;;;;;;;25.20;13.87;;;17.80;99.90;;;;;;5032756;28;20448;-52
2021/07/21 02:33:07;;;;;;;21.63;13.33;;;17.70;99.90;;;;;;5032513;28;20452;-51
2021/07/21 02:35:37;;;;;;;23.57;14.30;;;17.70;99.90;;;;;;5032318;28;20477;-52
2021/07/21 02:38:04;;;;;;;24.70;14.37;;;17.70;99.90;;;;;;5033163;28;20444;-52
2021/07/21 02:40:32;;;;;;;26.60;15.33;;;17.70;99.90;;;;;;5032719;28;20456;-51
2021/07/21 02:42:59;;;;;;;25.03;14.53;;;17.50;99.90;;;;;;5032190;28;20514;-52
2021/07/21 02:45:26;;;;;;;22.60;14.60;;;17.50;99.90;;;;;;5032368;28;20534;-52
2021/07/21 02:47:53;;;;;;;21.50;13.83;;;17.60;99.90;;;;;;5032457;28;21023;-52
2021/07/21 02:50:21;;;;;;;23.17;14.20;;;17.60;99.90;;;;;;5032509;28;20506;-52
2021/07/21 02:52:59;;;;;;;27.23;14.80;;;17.60;99.90;;;;;;5032661;28;20445;-52
2021/07/21 02:55:29;;;;;;;24.17;13.93;;;17.50;99.90;;;;;;5032345;28;20981;-51
2021/07/21 02:58:02;;;;;;;25.07;14.73;;;17.50;99.90;;;;;;5032342;28;20873;-51
2021/07/21 03:00:32;;;;;;;22.67;14.03;;;17.50;99.90;;;;;;5019784;28;20445;-52
2021/07/21 03:03:02;;;;;;;23.03;14.50;;;17.50;99.90;;;;;;5032076;28;20499;-52
2021/07/21 03:05:31;;;;;;;21.30;13.07;;;17.50;99.90;;;;;;5032203;28;20557;-52
2021/07/21 03:08:01;;;;;;;26.73;14.53;;;17.40;99.90;;;;;;5032016;28;20493;-52
2021/07/21 03:10:29;;;;;;;24.00;13.73;;;17.40;99.90;;;;;;5032062;28;20491;-52
2021/07/21 03:13:02;;;;;;;24.90;14.37;;;17.40;99.90;;;;;;5032108;28;20502;-51
2021/07/21 03:15:32;;;;;;;22.50;14.03;;;17.40;99.90;;;;;;5031811;28;20461;-52
2021/07/21 03:18:01;;;;;;;23.57;13.40;;;17.40;99.90;;;;;;5032104;28;20453;-52
2021/07/21 03:20:29;;;;;;;24.03;14.53;;;17.40;99.90;;;;;;5032154;28;20507;-52
2021/07/21 03:22:58;;;;;;;24.10;14.33;;;17.30;99.90;;;;;;5031127;28;20444;-52
2021/07/21 03:25:28;;;;;;;23.60;14.33;;;17.30;99.90;;;;;;5028324;28;20469;-52
2021/07/21 03:27:56;;;;;;;23.83;14.03;;;17.30;99.90;;;;;;5027326;28;20499;-52
2021/07/21 03:30:25;;;;;;;25.53;14.30;;;17.30;99.90;;;;;;5024799;28;20452;-51
2021/07/21 03:32:55;;;;;;;23.23;13.37;;;17.30;99.90;;;;;;5031355;28;20484;-52
2021/07/21 03:35:26;;;;;;;23.60;13.70;;;17.20;99.90;;;;;;5031646;28;20858;-51
2021/07/21 03:37:54;;;;;;;21.70;14.30;;;17.20;99.90;;;;;;5032132;28;20449;-51
2021/07/21 03:40:22;;;;;;;24.93;14.23;;;17.20;99.90;;;;;;5032100;28;20448;-52
2021/07/21 03:42:53;;;;;;;22.50;12.77;;;17.20;99.90;;;;;;5031350;28;20449;-52
2021/07/21 03:45:22;;;;;;;28.40;13.23;;;17.20;99.90;;;;;;5031365;28;21052;-52
2021/07/21 03:47:50;;;;;;;24.50;14.30;;;17.20;99.90;;;;;;5031768;28;20499;-51
2021/07/21 03:50:21;;;;;;;22.63;13.13;;;17.10;99.90;;;;;;5031631;28;20503;-52
2021/07/21 03:52:49;;;;;;;22.73;14.63;;;17.20;99.90;;;;;;5031224;28;20480;-51
2021/07/21 03:55:18;;;;;;;25.83;14.77;;;17.20;99.90;;;;;;5031584;28;20534;-52
2021/07/21 03:57:46;;;;;;;22.00;13.33;;;17.20;99.90;;;;;;5031633;28;20448;-51
2021/07/21 04:00:17;;;;;;;25.60;14.87;;;17.10;99.90;;;;;;5031216;28;20824;-51
2021/07/21 04:02:46;;;;;;;26.63;14.93;;;17.10;99.90;;;;;;5031078;28;20826;-51
2021/07/21 04:05:16;;;;;;;26.03;14.20;;;17.00;99.90;;;;;;5031350;28;20530;-51
2021/07/21 04:07:44;;;;;;;30.70;14.73;;;17.10;99.90;;;;;;5011863;28;20458;-52
2021/07/21 04:10:13;;;;;;;21.73;13.40;;;17.10;99.90;;;;;;5013668;28;20878;-51
2021/07/21 04:12:43;;;;;;;23.90;13.77;;;17.10;99.90;;;;;;5031967;28;20574;-52
2021/07/21 04:15:11;;;;;;;22.87;14.33;;;17.20;99.90;;;;;;5034783;28;21177;-52
2021/07/21 04:17:41;;;;;;;23.23;14.43;;;17.30;99.90;;;;;;5023552;28;20831;-51
2021/07/21 04:20:11;;;;;;;22.70;14.47;;;17.30;99.90;;;;;;5036273;28;20448;-52
2021/07/21 04:22:39;;;;;;;24.17;14.60;;;17.30;99.90;;;;;;5034870;28;20531;-51
2021/07/21 04:25:09;;;;;;;26.63;13.80;;;17.30;99.90;;;;;;5035207;28;20468;-51
2021/07/21 04:27:37;;;;;;;24.33;14.90;;;17.40;99.90;;;;;;5035389;28;20448;-51
2021/07/21 04:30:05;;;;;;;25.50;14.50;;;17.40;99.90;;;;;;5034750;28;20449;-51
2021/07/21 04:32:33;;;;;;;25.50;13.70;;;17.40;99.90;;;;;;5024862;28;20904;-51
2021/07/21 04:35:02;;;;;;;24.40;14.30;;;17.40;99.90;;;;;;5035140;28;20476;-51
2021/07/21 04:37:30;;;;;;;29.40;15.00;;;17.50;99.90;;;;;;5035330;28;20452;-51
2021/07/21 04:39:57;;;;;;;22.87;13.77;;;17.50;99.90;;;;;;5034703;28;20495;-52
2021/07/21 04:42:26;;;;;;;23.30;14.33;;;17.50;99.90;;;;;;5034578;28;20452;-52
2021/07/21 04:44:54;;;;;;;22.23;14.37;;;17.60;99.90;;;;;;5034936;28;20474;-51
2021/07/21 04:47:21;;;;;;;26.23;14.50;;;17.70;99.90;;;;;;5034978;28;20502;-51
2021/07/21 04:49:48;;;;;;;26.07;14.53;;;17.90;99.90;;;;;;5034598;28;20449;-51
2021/07/21 04:52:19;;;;;;;22.47;13.37;;;18.00;99.90;;;;;;5034421;28;20530;-51
2021/07/21 04:54:46;;;;;;;29.13;15.33;;;18.20;99.90;;;;;;5034793;28;20883;-51
2021/07/21 04:57:15;;;;;;;27.47;13.87;;;18.30;99.90;;;;;;5034858;28;20791;-51
2021/07/21 04:59:42;;;;;;;25.73;15.50;;;18.40;99.90;;;;;;5034763;28;20448;-52
2021/07/21 05:02:11;;;;;;;28.77;15.07;;;18.70;99.90;;;;;;5034204;28;20448;-52
2021/07/21 05:04:38;;;;;;;25.83;15.73;;;19.00;99.90;;;;;;5034543;28;20530;-51
2021/07/21 05:07:05;;;;;;;22.63;14.23;;;19.60;99.90;;;;;;5034351;28;20452;-51
2021/07/21 05:09:34;;;;;;;21.90;14.50;;;20.20;99.90;;;;;;5034040;28;20453;-52
2021/07/21 05:12:01;;;;;;;23.38;14.57;;;20.90;99.90;;;;;;5031921;28;20511;-51
2021/07/21 05:14:28;;;;;;;27.90;15.23;;;21.60;99.90;;;;;;5033221;28;20221;-52
2021/07/21 05:16:55;;;;;;;26.63;14.33;;;22.10;99.90;;;;;;5030821;28;20519;-52
2021/07/21 05:19:23;;;;;;;21.90;14.27;;;22.70;99.90;;;;;;5033374;28;20456;-52
2021/07/21 05:21:52;;;;;;;24.40;14.90;;;23.30;99.90;;;;;;5033863;28;20448;-51
2021/07/21 05:24:19;;;;;;;21.83;14.30;;;23.50;99.90;;;;;;5033013;28;20464;-52
2021/07/21 05:26:49;;;;;;;23.70;14.87;;;23.90;99.90;;;;;;5034253;28;20452;-52
2021/07/21 05:29:16;;;;;;;27.10;15.70;;;24.30;99.90;;;;;;5020008;28;20452;-51
2021/07/21 05:31:43;;;;;;;25.27;15.03;;;24.50;99.90;;;;;;5033980;28;20537;-51
2021/07/21 05:34:11;;;;;;;23.57;15.67;;;24.80;99.90;;;;;;5033654;28;20993;-51
2021/07/21 05:36:39;;;;;;;28.27;16.20;;;24.20;99.90;;;;;;5030490;28;20445;-53
2021/07/21 05:39:07;;;;;;;24.23;15.03;;;24.60;99.90;;;;;;5018808;28;20448;-52
2021/07/21 05:41:37;;;;;;;23.80;15.83;;;24.40;99.90;;;;;;5026207;28;20500;-52
2021/07/21 05:44:06;;;;;;;24.00;15.20;;;24.80;99.90;;;;;;5019373;28;20868;-51
2021/07/21 05:46:33;;;;;;;21.67;15.13;;;25.00;99.90;;;;;;5024310;28;20456;-52
2021/07/21 05:49:00;;;;;;;24.07;15.10;;;25.50;99.90;;;;;;5025599;28;20519;-51
2021/07/21 05:51:27;;;;;;;23.57;15.40;;;25.50;99.90;;;;;;5014644;28;20504;-52
2021/07/21 05:53:55;;;;;;;23.30;15.60;;;25.50;99.90;;;;;;5032920;28;20453;-52
2021/07/21 05:56:23;;;;;;;25.53;15.30;;;25.40;99.90;;;;;;5032931;28;20539;-52
2021/07/21 05:58:50;;;;;;;25.30;16.40;;;25.10;99.90;;;;;;5028766;28;20449;-53
2021/07/21 06:01:19;;;;;;;22.97;15.33;;;25.30;99.90;;;;;;5032971;28;20448;-52
2021/07/21 06:03:46;;;;;;;22.40;14.10;;;25.80;99.90;;;;;;5032623;28;20445;-52
2021/07/21 06:06:13;;;;;;;24.03;15.67;;;26.20;99.90;;;;;;5031626;28;20958;-52
2021/07/21 06:08:40;;;;;;;24.07;15.57;;;25.70;99.90;;;;;;5029112;28;20452;-52
2021/07/21 06:11:07;;;;;;;25.30;17.50;;;25.90;99.90;;;;;;5026701;28;20512;-51
2021/07/21 06:13:34;;;;;;;23.37;15.57;;;26.40;99.90;;;;;;5026621;28;20554;-52
2021/07/21 06:16:06;;;;;;;24.17;16.80;;;27.00;99.90;;;;;;5032689;28;20472;-52
2021/07/21 06:18:36;;;;;;;23.70;16.37;;;27.50;99.90;;;;;;5033289;28;20510;-52
2021/07/21 06:21:04;;;;;;;25.00;16.50;;;28.00;99.90;;;;;;5032651;28;20511;-52
2021/07/21 06:23:31;;;;;;;21.70;15.03;;;27.90;99.90;;;;;;5022186;28;20454;-52
2021/07/21 06:25:58;;;;;;;23.70;16.20;;;28.20;99.90;;;;;;5023043;28;20465;-52
2021/07/21 06:28:25;;;;;;;23.67;17.27;;;27.90;99.90;;;;;;5013109;28;20796;-52
2021/07/21 06:30:52;;;;;;;28.63;18.13;;;26.50;99.90;;;;;;5011786;28;20870;-52
2021/07/21 06:33:19;;;;;;;22.67;15.73;;;26.20;99.90;;;;;;5028654;28;20487;-53
2021/07/21 06:35:48;;;;;;;23.93;16.20;;;27.20;99.90;;;;;;5032320;28;21019;-52
2021/07/21 06:38:17;;;;;;;22.37;15.70;;;27.80;99.90;;;;;;5031502;28;20449;-52
2021/07/21 06:40:44;;;;;;;25.90;17.40;;;28.40;99.90;;;;;;5031873;28;20503;-52
2021/07/21 06:43:11;;;;;;;25.17;16.17;;;28.50;99.90;;;;;;5031907;28;20444;-53
2021/07/21 06:45:38;;;;;;;22.17;15.37;;;28.30;99.90;;;;;;5032712;28;20476;-53
2021/07/21 06:48:06;;;;;;;23.13;14.77;;;27.30;99.90;;;;;;5032830;28;20453;-52
2021/07/21 06:50:33;;;;;;;24.53;14.47;;;27.90;99.90;;;;;;5023953;28;20456;-52
2021/07/21 06:53:01;;;;;;;26.90;15.30;;;28.50;99.90;;;;;;5023843;28;20477;-52
2021/07/21 06:55:28;;;;;;;21.10;14.23;;;29.00;99.90;;;;;;5031938;28;20539;-53
2021/07/21 06:57:56;;;;;;;20.13;14.33;;;28.90;99.90;;;;;;5032340;28;20445;-53
2021/07/21 07:00:22;;;;;;;20.50;13.87;;;28.70;99.90;;;;;;5032043;28;20444;-53
2021/07/21 07:02:49;;;;;;;26.20;13.83;;;28.90;99.90;;;;;;5031647;28;20500;-52
2021/07/21 07:05:16;;;;;;;22.93;14.40;;;28.30;99.90;;;;;;5031112;28;20506;-52
2021/07/21 07:07:43;;;;;;;22.13;13.50;;;27.50;99.90;;;;;;5031181;28;20879;-52
2021/07/21 07:10:12;;;;;;;18.40;12.83;;;28.10;99.90;;;;;;5030089;28;21028;-53
2021/07/21 07:12:39;;;;;;;20.60;13.80;;;28.70;99.90;;;;;;5031370;28;20484;-52
2021/07/21 07:15:07;;;;;;;19.50;13.33;;;28.90;99.90;;;;;;5031899;28;20468;-52
2021/07/21 07:17:35;;;;;;;19.43;13.57;;;28.40;99.90;;;;;;5032128;28;20507;-52
2021/07/21 07:20:02;;;;;;;19.90;14.10;;;28.40;99.90;;;;;;5031942;28;20576;-52
2021/07/21 07:22:29;;;;;;;20.67;13.43;;;28.00;99.90;;;;;;5031225;28;20445;-52
2021/07/21 07:24:56;;;;;;;18.23;12.87;;;27.50;99.90;;;;;;5030839;28;20911;-52
2021/07/21 07:27:24;;;;;;;18.43;13.13;;;27.50;99.90;;;;;;5031276;28;20503;-53
2021/07/21 07:29:51;;;;;;;19.37;14.00;;;28.30;99.90;;;;;;5031812;28;20495;-53
2021/07/21 07:32:18;;;;;;;18.20;12.77;;;28.40;99.90;;;;;;5030926;28;20481;-53
2021/07/21 07:34:45;;;;;;;19.63;12.60;;;28.70;99.90;;;;;;5030459;28;20833;-53
2021/07/21 07:37:12;;;;;;;20.20;14.27;;;29.20;99.90;;;;;;5031680;28;20457;-53
2021/07/21 07:39:39;;;;;;;18.83;14.30;;;29.60;99.90;;;;;;5031586;28;20943;-52
2021/07/21 07:42:07;;;;;;;20.83;14.90;;;29.70;99.90;;;;;;5030869;28;20511;-53
2021/07/21 07:44:35;;;;;;;19.80;13.90;;;30.30;99.90;;;;;;5027598;28;20491;-52
2021/07/21 07:47:03;;;;;;;23.17;14.57;;;29.40;99.90;;;;;;5030690;28;20868;-52
2021/07/21 07:49:30;;;;;;;17.97;13.10;;;29.00;99.90;;;;;;5031367;28;20449;-52
2021/07/21 07:51:57;;;;;;;19.00;13.97;;;29.40;99.90;;;;;;5030967;28;21067;-52
2021/07/21 07:54:25;;;;;;;20.43;14.50;;;28.90;99.90;;;;;;5030896;28;20468;-53
2021/07/21 07:56:52;;;;;;;19.50;14.60;;;29.50;99.90;;;;;;5031356;28;20448;-53
2021/07/21 07:59:19;;;;;;;22.70;15.10;;;29.90;99.90;;;;;;5030880;28;20449;-53
2021/07/21 08:01:47;;;;;;;22.43;15.23;;;30.50;99.90;;;;;;5031110;28;20499;-52
2021/07/21 08:04:14;;;;;;;20.77;14.43;;;29.80;99.90;;;;;;5030896;28;20901;-53
2021/07/21 08:06:41;;;;;;;22.10;14.53;;;28.20;99.90;;;;;;5085705;22;20498;-59
2021/07/21 08:09:13;;;;;;;19.30;13.47;;;28.20;99.90;;;;;;5055107;28;20443;-60
2021/07/21 08:11:44;;;;;;;19.23;13.77;;;28.90;99.90;;;;;;5070855;28;20854;-59
2021/07/21 08:14:12;;;;;;;20.70;15.03;;;28.80;99.90;;;;;;5053320;28;20483;-59
2021/07/21 08:16:39;;;;;;;23.30;15.47;;;28.60;99.90;;;;;;5051213;28;20972;-59
2021/07/21 08:19:07;;;;;;;23.37;15.20;;;29.10;99.90;;;;;;5051411;28;20447;-60
2021/07/21 08:21:34;;;;;;;21.97;15.90;;;29.40;99.90;;;;;;5050883;28;20459;-60
2021/07/21 08:24:01;;;;;;;24.60;15.83;;;29.40;99.90;;;;;;5062451;28;20936;-59
2021/07/21 08:26:28;;;;;;;21.63;14.80;;;29.40;99.90;;;;;;5051109;28;21063;-60
2021/07/21 08:28:55;;;;;;;22.23;14.97;;;29.50;99.90;;;;;;5052448;28;20455;-60
2021/07/21 08:31:22;;;;;;;21.80;15.17;;;29.30;99.90;;;;;;5051179;28;20512;-60
2021/07/21 08:33:49;;;;;;;21.33;14.60;;;29.30;99.90;;;;;;5067801;28;20475;-60
2021/07/21 08:36:18;;;;;;;20.93;14.27;;;28.70;99.90;;;;;;5051616;28;20541;-60
2021/07/21 08:38:45;;;;;;;22.07;14.47;;;27.80;99.90;;;;;;5050609;28;20890;-60
2021/07/21 08:41:13;;;;;;;20.23;14.57;;;27.20;99.90;;;;;;5050895;28;20792;-59
2021/07/21 08:43:42;;;;;;;26.07;15.67;;;26.50;99.90;;;;;;5057339;28;20513;-58
2021/07/21 08:46:09;;;;;;;27.13;15.20;;;25.30;99.90;;;;;;5054154;28;20501;-58
2021/07/21 08:48:37;;;;;;;21.77;14.10;;;25.50;99.90;;;;;;5067783;28;20447;-59
2021/07/21 08:51:04;;;;;;;20.23;14.70;;;26.30;99.90;;;;;;5071003;28;20455;-59
2021/07/21 08:53:33;;;;;;;24.93;15.00;;;27.10;99.90;;;;;;5055715;28;20578;-59
2021/07/21 08:56:00;;;;;;;21.90;13.90;;;27.50;99.90;;;;;;5050970;28;20472;-59
2021/07/21 08:58:27;;;;;;;21.13;13.43;;;27.70;99.90;;;;;;5066334;28;20508;-60
2021/07/21 09:00:55;;;;;;;21.90;14.67;;;28.10;99.90;;;;;;5074788;28;20455;-60
2021/07/21 09:03:23;;;;;;;19.30;14.67;;;28.60;99.90;;;;;;5059776;28;20456;-59
2021/07/21 09:05:50;;;;;;;24.40;15.27;;;28.80;99.90;;;;;;5054612;28;20479;-61
2021/07/21 09:08:18;;;;;;;24.53;13.67;;;29.40;99.90;;;;;;5054714;28;21033;-60
2021/07/21 09:10:47;;;;;;;21.87;15.10;;;29.10;99.90;;;;;;5070744;28;20459;-60
2021/07/21 09:13:15;;;;;;;26.70;15.10;;;27.80;99.90;;;;;;5067722;28;20483;-59
2021/07/21 09:15:43;;;;;;;23.57;14.90;;;28.20;99.90;;;;;;5061913;28;20471;-60
2021/07/21 09:18:12;;;;;;;22.73;14.33;;;28.10;99.90;;;;;;5054624;28;20450;-60
2021/07/21 09:20:41;;;;;;;23.70;14.93;;;27.90;99.90;;;;;;5055550;28;20455;-60
2021/07/21 09:23:08;;;;;;;21.30;14.77;;;28.40;99.90;;;;;;5061759;28;20496;-60
2021/07/21 09:25:38;;;;;;;19.00;13.50;;;29.30;99.90;;;;;;5072575;28;20471;-61
2021/07/21 09:28:08;;;;;;;21.47;14.83;;;28.60;99.90;;;;;;5061869;28;20455;-60
2021/07/21 09:30:38;;;;;;;19.70;14.13;;;28.30;99.90;;;;;;5054548;28;20513;-59
2021/07/21 09:33:07;;;;;;;21.60;14.80;;;28.60;99.90;;;;;;5057375;28;20521;-61
2021/07/21 09:35:37;;;;;;;24.47;15.43;;;29.60;99.90;;;;;;5054602;28;20537;-60
2021/07/21 09:38:07;;;;;;;22.30;14.70;;;29.70;99.90;;;;;;5074065;28;20496;-60
2021/07/21 09:40:36;;;;;;;21.60;15.17;;;29.50;99.90;;;;;;5063821;28;20451;-60
2021/07/21 09:43:03;;;;;;;19.80;14.37;;;29.10;99.90;;;;;;5053845;28;20436;-60
2021/07/21 09:45:38;;;;;;;24.23;16.50;;;29.00;99.90;;;;;;5053776;28;20529;-60
2021/07/21 09:48:05;;;;;;;21.63;14.73;;;29.00;99.90;;;;;;5062005;28;20473;-60
2021/07/21 09:50:35;;;;;;;20.77;15.23;;;28.40;99.90;;;;;;5074186;28;20446;-60
2021/07/21 09:53:06;;;;;;;20.07;14.50;;;28.70;99.90;;;;;;5065542;28;20554;-60
2021/07/21 09:55:35;;;;;;;21.80;14.90;;;28.80;99.90;;;;;;5057471;28;20471;-59
2021/07/21 09:58:05;;;;;;;21.50;14.43;;;28.30;99.90;;;;;;5054777;28;20888;-60
2021/07/21 10:00:36;;;;;;;21.77;15.43;;;28.00;99.90;;;;;;5061371;28;20450;-60
2021/07/21 10:03:17;;;;;;;20.07;14.50;;;28.30;99.90;;;;;;5065600;28;20870;-60
2021/07/21 10:06:00;;;;;;;24.60;14.53;;;28.00;99.90;;;;;;5067514;28;20532;-60
2021/07/21 10:08:39;;;;;;;20.40;14.00;;;27.70;99.90;;;;;;5073474;28;21010;-60
2021/07/21 10:11:29;;;;;;;18.40;13.60;;;27.70;99.90;;;;;;5072350;28;20479;-60
2021/07/21 10:14:09;;;;;;;22.07;14.10;;;27.50;99.90;;;;;;5064751;28;20543;-60
2021/07/21 10:16:43;;;;;;;20.47;14.37;;;27.00;99.90;;;;;;5073504;28;20475;-60
2021/07/21 10:19:13;;;;;;;24.03;15.30;;;26.70;99.90;;;;;;5071580;28;21016;-60
2021/07/21 10:21:43;;;;;;;22.63;13.77;;;26.50;99.90;;;;;;5067912;28;20442;-59
2021/07/21 10:24:11;;;;;;;22.23;15.10;;;26.50;99.90;;;;;;5056671;28;20542;-59
2021/07/21 10:26:39;;;;;;;20.30;14.00;;;26.40;99.90;;;;;;5063208;28;20824;-59
2021/07/21 10:29:06;;;;;;;21.20;14.37;;;26.70;99.90;;;;;;5054062;28;20452;-59
2021/07/21 10:31:34;;;;;;;22.50;14.53;;;27.20;99.90;;;;;;5053286;28;20458;-59
2021/07/21 10:34:03;;;;;;;19.57;13.90;;;27.50;99.90;;;;;;5058185;28;20920;-59
2021/07/21 10:36:32;;;;;;;23.17;13.97;;;27.40;99.90;;;;;;5052991;28;20467;-60
2021/07/21 10:39:01;;;;;;;19.80;13.90;;;27.70;99.90;;;;;;5054567;28;22468;-59
2021/07/21 10:41:30;;;;;;;21.07;13.83;;;27.50;99.90;;;;;;5072805;28;20447;-59
2021/07/21 10:43:59;;;;;;;23.97;15.73;;;27.60;99.90;;;;;;5062509;28;20471;-59
2021/07/21 10:46:34;;;;;;;18.60;14.10;;;27.30;99.90;;;;;;5057512;28;20500;-59
2021/07/21 10:49:19;;;;;;;21.77;14.87;;;28.00;99.90;;;;;;5057704;28;20446;-59
2021/07/21 10:54:56;;;;;;;20.27;14.17;;;27.30;99.90;;;;;;5051737;28;20752;-60
2021/07/21 11:00:11;;;;;;;21.33;14.30;;;28.40;99.90;;;;;;5052384;28;20427;-59
2021/07/21 11:02:38;;;;;;;21.23;15.10;;;28.50;99.90;;;;;;5058135;28;20508;-59
2021/07/21 11:05:09;;;;;;;20.70;14.60;;;27.60;99.90;;;;;;5071941;28;21061;-58
2021/07/21 11:07:53;;;;;;;19.73;14.43;;;28.10;99.90;;;;;;5057623;28;20452;-60
2021/07/21 11:10:36;;;;;;;20.70;14.53;;;28.20;99.90;;;;;;5064902;28;20443;-59
2021/07/21 11:13:04;;;;;;;23.53;15.77;;;27.90;99.90;;;;;;5051411;28;20521;-59
2021/07/21 11:15:42;;;;;;;21.00;14.40;;;27.60;99.90;;;;;;5051966;28;20476;-59
2021/07/21 11:18:40;;;;;;;21.07;14.47;;;27.20;99.90;;;;;;5061139;28;20454;-60
2021/07/21 11:21:11;;;;;;;20.60;14.60;;;27.80;99.90;;;;;;5071003;28;20461;-59
2021/07/21 11:23:46;;;;;;;19.87;13.70;;;28.30;99.90;;;;;;5061263;28;20494;-59
2021/07/21 11:26:46;;;;;;;22.10;14.70;;;28.30;99.90;;;;;;5071827;28;20470;-59
2021/07/21 11:29:46;;;;;;;20.53;14.33;;;27.90;99.90;;;;;;5009805;28;20519;-60
2021/07/21 11:32:25;;;;;;;21.77;15.30;;;27.80;99.90;;;;;;5071091;28;20450;-59
2021/07/21 11:34:52;;;;;;;22.03;15.80;;;27.40;99.90;;;;;;5071441;28;20548;-59
2021/07/21 11:37:28;;;;;;;26.27;15.63;;;27.50;99.90;;;;;;5070716;28;20465;-59
2021/07/21 11:39:56;;;;;;;21.43;14.90;;;27.20;99.90;;;;;;5071827;28;20447;-59
2021/07/21 11:42:35;;;;;;;21.27;14.90;;;27.00;99.90;;;;;;5058717;28;20968;-59
2021/07/21 11:45:18;;;;;;;24.23;14.90;;;27.20;99.90;;;;;;5055004;28;21100;-59
2021/07/21 11:47:48;;;;;;;28.57;15.50;;;27.10;99.90;;;;;;5069151;28;20606;-59
2021/07/21 11:50:18;;;;;;;22.13;14.97;;;26.60;99.90;;;;;;5071341;28;20542;-60
2021/07/21 11:52:51;;;;;;;22.00;14.90;;;26.80;99.90;;;;;;5065051;28;20446;-59
2021/07/21 11:55:18;;;;;;;22.33;15.27;;;26.90;99.90;;;;;;5069624;28;20582;-60
2021/07/21 11:57:46;;;;;;;21.30;14.60;;;26.80;99.90;;;;;;5071686;28;20943;-59
2021/07/21 12:00:14;;;;;;;19.47;14.20;;;26.90;99.90;;;;;;5071529;28;20876;-60
2021/07/21 12:02:41;;;;;;;22.65;15.10;;;27.00;99.90;;;;;;5050059;28;20448;-60
2021/07/21 12:05:09;;;;;;;21.70;14.53;;;26.90;99.90;;;;;;5050606;28;20681;-59
2021/07/21 12:07:37;;;;;;;21.73;14.13;;;27.10;99.90;;;;;;5051290;28;20451;-59
2021/07/21 12:10:15;;;;;;;22.17;14.40;;;27.10;99.90;;;;;;5051375;28;20451;-60
2021/07/21 12:12:43;;;;;;;24.47;14.93;;;27.10;99.90;;;;;;5061403;28;20456;-59
2021/07/21 12:15:14;;;;;;;24.60;15.20;;;27.00;99.90;;;;;;5050930;28;20487;-60
2021/07/21 12:17:41;;;;;;;21.80;15.47;;;26.90;99.90;;;;;;5052336;28;20505;-60
2021/07/21 12:20:10;;;;;;;21.60;14.57;;;27.20;99.90;;;;;;5051350;28;20493;-60
2021/07/21 12:22:39;;;;;;;18.90;12.80;;;27.20;99.90;;;;;;5064631;28;20455;-60
2021/07/21 12:25:08;;;;;;;18.23;13.77;;;27.20;99.90;;;;;;5071055;28;20867;-59
2021/07/21 12:27:38;;;;;;;23.63;14.70;;;26.90;99.90;;;;;;5062678;28;20456;-59
2021/07/21 12:30:07;;;;;;;19.20;13.60;;;26.90;99.90;;;;;;5052379;28;20475;-60
2021/07/21 12:32:35;;;;;;;21.83;16.10;;;27.10;99.90;;;;;;5060394;28;20452;-58
2021/07/21 12:35:04;;;;;;;24.60;14.03;;;26.80;99.90;;;;;;5069924;28;20486;-59
2021/07/21 12:37:36;;;;;;;21.20;14.97;;;27.00;99.90;;;;;;5067868;28;20447;-59
2021/07/21 12:40:07;;;;;;;18.60;12.63;;;27.10;99.90;;;;;;5066380;28;20451;-59
2021/07/21 12:42:36;;;;;;;18.60;13.67;;;27.30;99.90;;;;;;5067802;28;20451;-58
2021/07/21 12:45:07;;;;;;;19.67;13.73;;;27.60;99.90;;;;;;5063711;28;20500;-58
2021/07/21 12:47:36;;;;;;;20.00;12.97;;;27.30;99.90;;;;;;5075077;28;20451;-59